createdAt,value
2022-08-30T00:00:15.306Z,18.50
2022-08-30T00:05:17.730Z,18.50
2022-08-30T00:10:20.244Z,18.50
2022-08-30T00:15:22.913Z,18.60
2022-08-30T00:20:28.099Z,18.60
2022-08-30T00:25:30.475Z,18.50
2022-08-30T00:30:33.055Z,18.50
2022-08-30T00:35:35.270Z,18.50
2022-08-30T00:40:41.907Z,18.50
2022-08-30T00:45:44.315Z,18.50
2022-08-30T00:50:56.980Z,18.50
2022-08-30T00:56:00.571Z,18.50
2022-08-30T01:01:05.147Z,18.50
2022-08-30T01:06:07.899Z,18.40
2022-08-30T01:11:12.410Z,18.40
2022-08-30T01:16:15.366Z,18.40
2022-08-30T01:21:28.017Z,18.40
2022-08-30T01:26:35.037Z,18.40
2022-08-30T01:31:37.408Z,18.40
2022-08-30T01:36:44.739Z,18.40
2022-08-30T01:41:47.471Z,18.40
2022-08-30T01:46:49.566Z,18.30
2022-08-30T01:51:51.651Z,18.30
2022-08-30T01:57:04.314Z,18.20
2022-08-30T02:02:07.271Z,18.20
2022-08-30T02:07:09.813Z,18.30
2022-08-30T02:12:11.922Z,18.20
2022-08-30T02:17:15.836Z,18.20
2022-08-30T02:22:18.398Z,18.10
2022-08-30T02:27:20.775Z,18.10
2022-08-30T02:32:22.958Z,18.10
2022-08-30T02:37:25.176Z,18.20
2022-08-30T02:42:27.309Z,18.20
2022-08-30T02:47:29.426Z,18.10
2022-08-30T02:52:31.851Z,18.10
2022-08-30T02:57:34.450Z,18.10
2022-08-30T03:02:36.812Z,18.10
2022-08-30T03:07:40.112Z,18.10
2022-08-30T03:12:42.740Z,18.00
2022-08-30T03:17:44.952Z,18.00
2022-08-30T03:22:47.445Z,18.00
2022-08-30T03:27:50.803Z,18.00
2022-08-30T03:32:53.177Z,18.00
2022-08-30T03:37:56.236Z,18.00
2022-08-30T03:42:58.679Z,18.00
2022-08-30T03:48:02.569Z,18.00
2022-08-30T03:53:04.866Z,18.00
2022-08-30T03:58:07.218Z,18.00
2022-08-30T04:03:09.533Z,18.00
2022-08-30T04:08:12.023Z,17.90
2022-08-30T04:13:15.707Z,17.90
2022-08-30T04:18:18.363Z,17.90
2022-08-30T04:23:21.343Z,17.90
2022-08-30T04:28:24.042Z,17.80
2022-08-30T04:33:26.174Z,17.80
2022-08-30T04:38:30.482Z,17.80
2022-08-30T04:43:34.234Z,17.80
2022-08-30T04:48:38.327Z,17.80
2022-08-30T04:53:44.072Z,17.70
2022-08-30T04:58:47.845Z,17.70
2022-08-30T05:03:50.959Z,17.70
2022-08-30T05:08:53.958Z,17.70
2022-08-30T05:13:56.272Z,17.70
2022-08-30T05:18:58.475Z,17.70
2022-08-30T05:24:01.465Z,17.60
2022-08-30T05:29:03.824Z,17.60
2022-08-30T05:34:06.238Z,17.50
2022-08-30T05:39:10.045Z,17.60
2022-08-30T05:44:12.323Z,17.60
2022-08-30T05:49:15.197Z,17.60
2022-08-30T05:54:17.743Z,17.60
2022-08-30T05:59:19.896Z,17.60
2022-08-30T06:04:22.106Z,17.70
2022-08-30T06:09:24.722Z,17.70
2022-08-30T06:14:27.283Z,17.70
2022-08-30T06:19:29.443Z,17.70
2022-08-30T06:24:55.962Z,17.80
2022-08-30T06:29:54.075Z,17.80
2022-08-30T06:34:56.354Z,17.80
2022-08-30T06:39:59.790Z,17.90
2022-08-30T06:45:10.697Z,18.00
2022-08-30T06:50:16.074Z,18.00
2022-08-30T06:55:19.811Z,18.20
2022-08-30T07:00:22.078Z,18.20
2022-08-30T07:05:24.332Z,18.40
2022-08-30T07:10:26.596Z,18.40
2022-08-30T07:15:29.159Z,18.50
2022-08-30T07:20:40.220Z,18.60
2022-08-30T07:25:42.940Z,18.60
2022-08-30T07:30:45.164Z,18.80
2022-08-30T07:35:47.378Z,19.00
2022-08-30T07:40:49.589Z,19.00
2022-08-30T07:45:51.789Z,19.20
2022-08-30T07:50:58.233Z,19.30
2022-08-30T07:56:02.227Z,19.40
2022-08-30T08:01:09.187Z,19.50
2022-08-30T08:06:13.896Z,19.60
2022-08-30T08:11:22.114Z,19.70
2022-08-30T08:16:26.858Z,19.80
2022-08-30T08:21:29.195Z,19.90
2022-08-30T08:26:33.953Z,20.00
2022-08-30T08:31:37.179Z,20.00
2022-08-30T08:36:39.755Z,20.10
2022-08-30T08:41:55.942Z,20.20
2022-08-30T08:47:23.288Z,20.30
2022-08-30T08:52:53.556Z,20.40
2022-08-30T08:57:56.751Z,20.50
2022-08-30T09:03:01.959Z,20.50
2022-08-30T09:08:10.073Z,20.60
2022-08-30T09:13:13.708Z,20.70
2022-08-30T09:18:19.235Z,20.90
2022-08-30T09:23:32.344Z,20.90
2022-08-30T09:28:50.944Z,21.00
2022-08-30T09:34:06.691Z,21.20
2022-08-30T09:39:30.516Z,21.30
2022-08-30T09:44:38.383Z,21.50
2022-08-30T09:49:44.764Z,21.70
2022-08-30T09:55:24.105Z,21.70
2022-08-30T10:00:31.560Z,21.90
2022-08-30T10:05:48.843Z,22.00
2022-08-30T10:10:56.320Z,22.20
2022-08-30T10:16:21.508Z,22.40
2022-08-30T10:21:40.251Z,22.50
2022-08-30T10:27:16.151Z,22.60
2022-08-30T10:32:34.196Z,22.80
2022-08-30T10:37:41.330Z,23.00
2022-08-30T10:42:43.538Z,23.10
2022-08-30T10:47:55.089Z,22.80
2022-08-30T10:53:26.512Z,22.70
2022-08-30T10:58:31.424Z,22.60
2022-08-30T11:04:08.740Z,22.70
2022-08-30T11:09:39.370Z,22.90
2022-08-30T11:14:44.083Z,23.20
2022-08-30T11:19:46.397Z,23.30
2022-08-30T11:25:11.403Z,23.20
2022-08-30T11:30:26.734Z,23.20
2022-08-30T11:35:39.228Z,23.20
2022-08-30T11:40:55.360Z,23.00
2022-08-30T11:46:26.246Z,22.90
2022-08-30T11:51:43.686Z,22.90
2022-08-30T11:56:50.243Z,22.90
2022-08-30T12:01:56.026Z,22.90
2022-08-30T12:07:04.444Z,22.90
2022-08-30T12:12:09.434Z,22.90
2022-08-30T12:17:45.874Z,22.90
2022-08-30T12:22:48.932Z,23.00
2022-08-30T12:27:51.210Z,23.00
2022-08-30T12:32:54.723Z,23.30
2022-08-30T12:38:06.064Z,23.40
2022-08-30T12:43:26.594Z,23.60
2022-08-30T12:48:29.500Z,24.20
2022-08-30T12:53:39.334Z,25.40
2022-08-30T12:58:43.651Z,26.30
2022-08-30T13:04:02.987Z,26.00
2022-08-30T13:09:05.349Z,25.60
2022-08-30T13:14:31.453Z,25.40
2022-08-30T13:19:36.816Z,25.20
2022-08-30T13:24:38.963Z,24.50
2022-08-30T13:29:41.174Z,24.30
2022-08-30T13:34:44.887Z,24.40
2022-08-30T13:39:47.179Z,24.60
2022-08-30T13:44:49.864Z,24.80
2022-08-30T13:49:51.980Z,25.40
2022-08-30T13:54:56.612Z,25.90
2022-08-30T13:59:59.257Z,25.70
2022-08-30T14:05:03.163Z,25.60
2022-08-30T14:15:29.308Z,25.00
2022-08-30T14:20:31.632Z,24.90
2022-08-30T14:25:34.251Z,24.90
2022-08-30T14:30:37.020Z,25.10
2022-08-30T14:35:39.199Z,25.20
2022-08-30T14:40:41.487Z,25.10
2022-08-30T14:45:43.777Z,25.00
2022-08-30T14:50:46.035Z,25.40
2022-08-30T14:55:48.147Z,27.00
2022-08-30T15:00:52.231Z,27.50
2022-08-30T15:05:54.364Z,27.70
2022-08-30T15:10:56.700Z,27.70
2022-08-30T15:15:58.843Z,27.50
2022-08-30T15:21:01.064Z,27.50
2022-08-30T15:26:03.552Z,26.20
2022-08-30T15:31:09.295Z,25.40
2022-08-30T15:36:13.033Z,24.90
2022-08-30T15:41:16.056Z,24.60
2022-08-30T15:46:22.772Z,24.60
2022-08-30T15:51:25.976Z,24.90
2022-08-30T15:56:28.247Z,25.90
2022-08-30T16:01:31.396Z,26.70
2022-08-30T16:06:37.395Z,26.60
2022-08-30T16:11:40.012Z,26.40
2022-08-30T16:16:42.356Z,26.60
2022-08-30T16:21:44.954Z,26.30
2022-08-30T16:26:47.288Z,26.40
2022-08-30T16:31:49.974Z,26.20
2022-08-30T16:36:52.242Z,25.30
2022-08-30T16:41:54.492Z,24.80
2022-08-30T16:46:57.052Z,24.50
2022-08-30T16:51:59.303Z,24.20
2022-08-30T16:57:01.561Z,24.00
2022-08-30T17:02:03.998Z,24.20
2022-08-30T17:07:06.752Z,24.00
2022-08-30T17:12:16.232Z,24.00
2022-08-30T17:17:21.995Z,23.80
2022-08-30T17:22:24.652Z,23.80
2022-08-30T17:27:28.995Z,24.20
2022-08-30T17:32:31.349Z,24.10
2022-08-30T17:37:33.664Z,23.70
2022-08-30T17:42:36.958Z,23.20
2022-08-30T17:47:39.324Z,23.10
2022-08-30T17:52:42.587Z,22.90
2022-08-30T17:57:45.015Z,22.70
2022-08-30T18:02:47.586Z,22.60
2022-08-30T18:07:50.102Z,22.60
2022-08-30T18:12:52.612Z,22.70
2022-08-30T18:17:55.198Z,22.80
2022-08-30T18:22:57.697Z,22.80
2022-08-30T18:28:00.430Z,22.70
2022-08-30T18:33:02.760Z,22.50
2022-08-30T18:38:05.639Z,22.50
2022-08-30T18:43:09.868Z,22.30
2022-08-30T18:48:12.735Z,22.00
2022-08-30T18:53:16.174Z,21.90
2022-08-30T18:58:30.992Z,21.60
2022-08-30T19:03:33.916Z,21.50
2022-08-30T19:08:36.261Z,21.40
2022-08-30T19:13:39.724Z,21.20
2022-08-30T19:18:42.350Z,21.10
2022-08-30T19:23:44.547Z,21.00
2022-08-30T19:28:46.747Z,20.90
2022-08-30T19:33:49.259Z,20.90
2022-08-30T19:38:51.719Z,20.80
2022-08-30T19:43:58.133Z,20.80
2022-08-30T19:49:05.133Z,20.70
2022-08-30T19:54:07.301Z,20.60
2022-08-30T19:59:09.945Z,20.60
2022-08-30T20:04:13.079Z,20.50
2022-08-30T20:09:15.559Z,20.40
2022-08-30T20:14:19.016Z,20.40
2022-08-30T20:19:21.930Z,20.40
2022-08-30T20:24:30.083Z,20.30
2022-08-30T20:29:32.651Z,20.20
2022-08-30T20:34:34.883Z,20.20
2022-08-30T20:39:38.367Z,20.20
2022-08-30T20:44:40.521Z,20.10
2022-08-30T20:49:43.300Z,20.10
2022-08-30T20:54:45.603Z,20.00
2022-08-30T20:59:47.776Z,20.00
2022-08-30T21:04:50.944Z,19.90
2022-08-30T21:09:54.101Z,19.90
2022-08-30T21:14:56.289Z,19.80
2022-08-30T21:19:58.785Z,19.80
2022-08-30T21:25:02.429Z,19.70
2022-08-30T21:30:05.485Z,19.70
2022-08-30T21:35:27.186Z,19.70
2022-08-30T21:40:29.374Z,19.60
2022-08-30T21:45:31.539Z,19.60
2022-08-30T21:50:34.233Z,19.60
2022-08-30T21:55:36.822Z,19.60
2022-08-30T22:00:39.148Z,19.50
2022-08-30T22:05:41.358Z,19.40
2022-08-30T22:10:44.553Z,19.40
2022-08-30T22:15:46.864Z,19.40
2022-08-30T22:20:49.197Z,19.30
2022-08-30T22:25:52.280Z,19.30
2022-08-30T22:30:54.753Z,19.30
2022-08-30T22:35:56.960Z,19.20
2022-08-30T22:40:59.135Z,19.20
2022-08-30T22:46:01.480Z,19.20
2022-08-30T22:51:04.121Z,19.20
2022-08-30T22:56:12.779Z,19.20
2022-08-30T23:01:24.929Z,19.20
2022-08-30T23:06:27.882Z,19.10
2022-08-30T23:11:31.844Z,19.10
2022-08-30T23:16:36.619Z,19.10
2022-08-30T23:21:39.001Z,19.00
2022-08-30T23:27:01.021Z,19.10
2022-08-30T23:32:23.866Z,19.00
2022-08-30T23:37:44.780Z,19.00
2022-08-30T23:43:08.178Z,19.00
2022-08-30T23:48:29.063Z,19.00
2022-08-30T23:53:49.755Z,18.90
2022-08-30T23:59:10.976Z,18.80
